Hauptseite
METAR-TAF:

METAR-TAF

Flughäfen :

Flughafen Noto

Wajima, Japan

Breite: 37-17-36N, Länge: 136-57-44E, Höhe: 219 m

Beobachtung

Neuester Wetterbericht von vor 4 Stunden und 31 Minuten, um 10:00 UTC
Wind 4 kt aus Ost/Nordost
Temperatur 11°C
Luftfeuchtigkeit 87%
Luftdruck 1018 hPa
Sichtweite 10 km oder mehr
Leicht bewölkt in der Höhe von 1500 ft
Aufgelockert bewölkt

METAR: RJNW 251000Z 06004KT 9999 FEW015 SCT/// 11/09 Q1018

Zeit: 23:31 (14:31 UTC)


TAF: fehlend

Wetterbeobachtungen und Prognosen von mehr als 4000 Flughäfen (METAR und TAF Bericht).

Die verfügbaren Stationen werden durch gelbe und rote Markierungen auf der Karte dargestellt.

Führen Sie die Maus auf sie, um den Namen der Station zu sehen.

Darauf klicken, um die Beobachtung von Wetterbeobachtungen und Prognosen zu sehen.

Um die Karte zu ändern : klicken Sie auf den grünen Tasten mit einem schwarzen Kreuz Zum Vergrößern, auf den grünen Button mit einem Gedankenstrich zu verkleinern, oder auf die grünen Pfeile für benachbarte Karten.


METAR-TAF: